createdAt,value
2022-11-15T00:00:37.248Z,19.09
2022-11-15T00:03:04.884Z,19.08
2022-11-15T00:05:32.436Z,19.07
2022-11-15T00:08:00.038Z,19.07
2022-11-15T00:10:27.708Z,19.07
2022-11-15T00:12:56.685Z,19.06
2022-11-15T00:15:24.257Z,19.06
2022-11-15T00:17:51.861Z,19.06
2022-11-15T00:20:20.004Z,19.06
2022-11-15T00:22:47.596Z,19.05
2022-11-15T00:25:15.360Z,19.06
2022-11-15T00:27:43.183Z,19.04
2022-11-15T00:30:13.562Z,19.04
2022-11-15T00:32:41.178Z,19.03
2022-11-15T00:35:09.477Z,19.03
2022-11-15T00:37:37.107Z,19.02
2022-11-15T00:40:05.276Z,19.03
2022-11-15T00:42:32.873Z,19.02
2022-11-15T00:45:00.471Z,19.02
2022-11-15T00:47:29.368Z,19.02
2022-11-15T00:49:56.963Z,19.01
2022-11-15T00:52:24.529Z,19.00
2022-11-15T00:54:52.179Z,19.00
2022-11-15T00:57:19.801Z,19.00
2022-11-15T00:59:47.382Z,19.00
2022-11-15T01:02:14.952Z,19.01
2022-11-15T01:04:43.888Z,19.00
2022-11-15T01:07:11.533Z,19.00
2022-11-15T01:09:39.144Z,19.00
2022-11-15T01:12:06.887Z,18.99
2022-11-15T01:14:34.453Z,18.98
2022-11-15T01:17:02.042Z,18.98
2022-11-15T01:19:29.611Z,18.97
2022-11-15T01:21:58.489Z,18.98
2022-11-15T01:24:26.255Z,18.97
2022-11-15T01:26:53.811Z,18.97
2022-11-15T01:29:21.394Z,18.97
2022-11-15T01:31:48.993Z,18.96
2022-11-15T01:34:17.040Z,18.97
2022-11-15T01:36:44.629Z,18.96
2022-11-15T01:39:13.626Z,18.96
2022-11-15T01:41:41.191Z,18.96
2022-11-15T01:44:45.277Z,18.95
2022-11-15T01:47:14.947Z,18.95
2022-11-15T01:49:46.086Z,18.94
2022-11-15T01:52:15.196Z,18.95
2022-11-15T01:54:44.168Z,18.93
2022-11-15T01:57:12.140Z,18.93
2022-11-15T01:59:40.181Z,18.93
2022-11-15T02:02:07.748Z,18.93
2022-11-15T02:04:37.497Z,18.93
2022-11-15T02:07:05.328Z,18.93
2022-11-15T02:09:32.989Z,18.92
2022-11-15T02:12:01.936Z,18.93
2022-11-15T02:14:29.508Z,18.93
2022-11-15T02:17:03.578Z,18.91
2022-11-15T02:19:42.690Z,18.92
2022-11-15T02:22:15.216Z,18.90
2022-11-15T02:25:03.639Z,18.89
2022-11-15T02:28:22.128Z,18.90
2022-11-15T02:30:52.130Z,18.90
2022-11-15T02:33:27.590Z,18.89
2022-11-15T02:35:59.659Z,18.88
2022-11-15T02:38:31.834Z,18.89
2022-11-15T02:41:01.071Z,18.88
2022-11-15T02:43:49.327Z,18.90
2022-11-15T02:46:20.546Z,18.87
2022-11-15T02:48:48.129Z,18.88
2022-11-15T02:51:15.715Z,18.87
2022-11-15T02:53:43.292Z,18.86
2022-11-15T02:56:11.209Z,18.86
2022-11-15T02:59:02.592Z,18.87
2022-11-15T03:01:39.390Z,18.87
2022-11-15T03:04:12.556Z,18.84
2022-11-15T03:06:42.935Z,18.85
2022-11-15T03:09:12.663Z,18.84
2022-11-15T03:11:41.630Z,18.83
2022-11-15T03:14:13.632Z,18.85
2022-11-15T03:16:45.382Z,18.84
2022-11-15T03:19:15.378Z,18.84
2022-11-15T03:21:43.075Z,18.84
2022-11-15T03:24:10.637Z,18.83
2022-11-15T03:26:39.081Z,18.82
2022-11-15T03:29:08.212Z,18.82
2022-11-15T03:31:50.933Z,18.82
2022-11-15T03:34:25.532Z,18.82
2022-11-15T03:36:53.775Z,18.81
2022-11-15T03:39:21.466Z,18.81
2022-11-15T03:41:50.737Z,18.81
2022-11-15T03:44:21.983Z,18.81
2022-11-15T03:46:51.222Z,18.81
2022-11-15T03:49:24.998Z,18.81
2022-11-15T03:51:53.910Z,18.81
2022-11-15T03:54:21.528Z,18.80
2022-11-15T03:56:49.123Z,18.81
2022-11-15T03:59:16.723Z,18.80
2022-11-15T04:01:44.328Z,18.80
2022-11-15T04:04:11.967Z,18.79
2022-11-15T04:06:39.507Z,18.79
2022-11-15T04:09:08.657Z,18.79
2022-11-15T04:11:55.000Z,18.78
2022-11-15T04:14:22.771Z,18.78
2022-11-15T04:16:50.352Z,18.77
2022-11-15T04:19:35.262Z,18.77
2022-11-15T04:22:20.487Z,18.76
2022-11-15T04:24:49.556Z,18.76
2022-11-15T04:27:17.159Z,18.76
2022-11-15T04:29:44.702Z,18.75
2022-11-15T04:32:12.317Z,18.75
2022-11-15T04:34:40.258Z,18.76
2022-11-15T04:37:12.751Z,18.74
2022-11-15T04:39:40.492Z,18.75
2022-11-15T04:42:09.483Z,18.75
2022-11-15T04:44:37.112Z,18.75
2022-11-15T04:47:04.814Z,18.75
2022-11-15T04:49:32.405Z,18.75
2022-11-15T04:52:00.019Z,18.73
2022-11-15T04:54:27.567Z,18.74
2022-11-15T04:56:56.238Z,18.74
2022-11-15T04:59:25.148Z,18.74
2022-11-15T05:01:52.862Z,18.74
2022-11-15T05:04:22.483Z,18.73
2022-11-15T05:06:50.658Z,18.72
2022-11-15T05:09:18.471Z,18.72
2022-11-15T05:11:46.208Z,18.71
2022-11-15T05:14:14.011Z,18.70
2022-11-15T05:16:42.977Z,18.71
2022-11-15T05:19:10.611Z,18.71
2022-11-15T05:21:38.283Z,18.70
2022-11-15T05:24:06.684Z,18.68
2022-11-15T05:26:34.371Z,18.69
2022-11-15T05:29:01.979Z,18.69
2022-11-15T05:31:29.703Z,18.68
2022-11-15T05:34:06.374Z,18.68
2022-11-15T05:36:35.923Z,18.67
2022-11-15T05:39:03.703Z,18.66
2022-11-15T05:41:33.279Z,18.66
2022-11-15T05:44:01.138Z,18.66
2022-11-15T05:46:28.772Z,18.66
2022-11-15T05:48:57.684Z,18.67
2022-11-15T05:51:25.392Z,18.66
2022-11-15T05:53:53.091Z,18.68
2022-11-15T05:56:20.725Z,18.67
2022-11-15T05:58:48.264Z,18.68
2022-11-15T06:01:15.836Z,18.69
2022-11-15T06:03:43.380Z,18.67
2022-11-15T06:06:16.259Z,18.67
2022-11-15T06:08:44.112Z,18.67
2022-11-15T06:11:11.682Z,18.68
2022-11-15T06:13:39.256Z,18.67
2022-11-15T06:16:07.412Z,18.67
2022-11-15T06:18:35.461Z,18.67
2022-11-15T06:21:03.157Z,18.67
2022-11-15T06:23:34.013Z,18.67
2022-11-15T06:26:01.946Z,18.67
2022-11-15T06:28:30.332Z,18.68
2022-11-15T06:30:57.947Z,18.67
2022-11-15T06:33:25.560Z,18.66
2022-11-15T06:35:53.091Z,18.67
2022-11-15T06:38:20.755Z,18.66
2022-11-15T06:40:49.700Z,18.66
2022-11-15T06:43:17.268Z,18.67
2022-11-15T06:45:44.860Z,18.66
2022-11-15T06:48:12.420Z,18.67
2022-11-15T06:50:39.988Z,18.67
2022-11-15T06:53:07.564Z,18.66
2022-11-15T06:55:35.215Z,18.66
2022-11-15T06:58:04.137Z,18.66
2022-11-15T07:00:31.688Z,18.66
2022-11-15T07:03:01.536Z,18.66
2022-11-15T07:05:29.182Z,18.66
2022-11-15T07:07:57.249Z,18.66
2022-11-15T07:10:25.491Z,18.66
2022-11-15T07:12:53.173Z,18.65
2022-11-15T07:15:23.356Z,18.65
2022-11-15T07:17:51.024Z,18.66
2022-11-15T07:20:18.740Z,18.66
2022-11-15T07:22:46.840Z,18.66
2022-11-15T07:25:14.447Z,18.65
2022-11-15T07:27:42.200Z,18.65
2022-11-15T07:30:11.000Z,18.65
2022-11-15T07:32:39.897Z,18.65
2022-11-15T07:35:07.909Z,18.65
2022-11-15T07:37:35.508Z,18.65
2022-11-15T07:40:03.071Z,18.65
2022-11-15T07:42:50.690Z,18.64
2022-11-15T07:45:18.364Z,18.65
2022-11-15T07:47:48.819Z,18.65
2022-11-15T07:50:16.591Z,18.64
2022-11-15T07:52:44.185Z,18.64
2022-11-15T07:55:11.742Z,18.63
2022-11-15T07:57:39.387Z,18.64
2022-11-15T08:00:08.216Z,18.54
2022-11-15T08:02:35.867Z,18.30
2022-11-15T08:05:05.088Z,18.40
2022-11-15T08:07:32.708Z,18.46
2022-11-15T08:10:02.039Z,18.50
2022-11-15T08:12:29.652Z,18.51
2022-11-15T08:14:57.460Z,18.54
2022-11-15T08:17:25.108Z,18.53
2022-11-15T08:19:52.655Z,18.54
2022-11-15T08:22:21.861Z,18.54
2022-11-15T08:24:49.427Z,18.54
2022-11-15T08:27:16.998Z,18.53
2022-11-15T08:29:44.802Z,18.54
2022-11-15T08:32:12.427Z,18.53
2022-11-15T08:34:40.027Z,18.55
2022-11-15T08:37:07.620Z,18.55
2022-11-15T08:39:36.566Z,18.56
2022-11-15T08:42:04.128Z,18.56
2022-11-15T08:44:31.732Z,18.58
2022-11-15T08:46:59.287Z,18.60
2022-11-15T08:49:26.832Z,18.60
2022-11-15T08:51:54.421Z,18.63
2022-11-15T08:54:22.003Z,18.64
2022-11-15T08:56:50.904Z,18.66
2022-11-15T08:59:18.495Z,18.68
2022-11-15T09:01:46.119Z,18.69
2022-11-15T09:04:13.734Z,18.71
2022-11-15T09:06:43.305Z,18.73
2022-11-15T09:09:11.050Z,18.74
2022-11-15T09:11:38.619Z,18.78
2022-11-15T09:14:07.552Z,18.78
2022-11-15T09:16:35.315Z,18.81
2022-11-15T09:19:06.446Z,18.84
2022-11-15T09:21:38.044Z,18.87
2022-11-15T09:24:06.064Z,18.89
2022-11-15T09:26:33.608Z,18.91
2022-11-15T09:29:02.196Z,18.93
2022-11-15T09:31:31.340Z,18.95
2022-11-15T09:33:58.915Z,18.99
2022-11-15T09:36:26.636Z,19.02
2022-11-15T09:38:54.187Z,19.06
2022-11-15T09:41:28.277Z,19.08
2022-11-15T09:44:05.153Z,19.11
2022-11-15T09:46:39.251Z,19.14
2022-11-15T09:49:06.827Z,19.16
2022-11-15T09:51:35.788Z,19.20
2022-11-15T09:54:37.831Z,19.22
2022-11-15T09:56:54.314Z,19.25
2022-11-15T09:59:46.219Z,19.28
2022-11-15T10:02:23.292Z,19.32
2022-11-15T10:04:50.876Z,19.34
2022-11-15T10:07:20.635Z,19.36
2022-11-15T10:09:49.756Z,19.36
2022-11-15T10:12:17.303Z,19.37
2022-11-15T10:14:44.870Z,19.39
2022-11-15T10:17:42.516Z,19.40
2022-11-15T10:20:14.812Z,19.42
2022-11-15T10:22:43.548Z,19.44
2022-11-15T10:25:18.727Z,19.44
2022-11-15T10:27:47.539Z,19.45
2022-11-15T10:30:16.296Z,19.48
2022-11-15T10:32:46.039Z,19.50
2022-11-15T10:35:24.683Z,19.50
2022-11-15T10:37:52.248Z,19.51
2022-11-15T10:40:21.862Z,19.51
2022-11-15T10:42:49.779Z,19.52
2022-11-15T10:45:25.458Z,19.53
2022-11-15T10:47:54.455Z,19.54
2022-11-15T10:50:32.552Z,19.54
2022-11-15T10:53:00.951Z,19.56
2022-11-15T10:55:29.747Z,19.56
2022-11-15T10:58:00.912Z,19.56
2022-11-15T11:00:31.108Z,19.57
2022-11-15T11:03:03.346Z,19.57
2022-11-15T11:05:38.085Z,19.57
2022-11-15T11:08:22.577Z,19.59
2022-11-15T11:10:58.550Z,19.57
2022-11-15T11:13:30.212Z,19.57
2022-11-15T11:16:00.508Z,19.57
2022-11-15T11:18:32.098Z,19.57
2022-11-15T11:21:00.845Z,19.55
2022-11-15T11:23:38.368Z,19.55
2022-11-15T11:26:13.935Z,19.55
2022-11-15T11:28:44.392Z,19.54
2022-11-15T11:31:22.267Z,19.55
2022-11-15T11:33:56.758Z,19.54
2022-11-15T11:36:33.454Z,19.53
2022-11-15T11:39:08.611Z,19.54
2022-11-15T11:41:51.231Z,19.53
2022-11-15T11:44:30.555Z,19.54
2022-11-15T11:46:58.639Z,19.55
2022-11-15T11:49:31.958Z,19.54
2022-11-15T11:52:04.407Z,19.56
2022-11-15T11:54:36.808Z,19.56
2022-11-15T11:57:05.078Z,19.56
2022-11-15T11:59:36.014Z,19.56
2022-11-15T12:02:04.231Z,19.55
2022-11-15T12:04:36.878Z,19.55
2022-11-15T12:07:06.214Z,19.55
2022-11-15T12:09:35.812Z,19.51
2022-11-15T12:12:08.866Z,19.31
2022-11-15T12:14:50.129Z,19.20
2022-11-15T12:17:18.686Z,19.25
2022-11-15T12:19:47.583Z,19.29
2022-11-15T12:22:18.042Z,19.31
2022-11-15T12:24:47.362Z,19.33
2022-11-15T12:27:21.960Z,19.35
2022-11-15T12:29:55.347Z,19.36
2022-11-15T12:32:28.180Z,19.38
2022-11-15T12:34:57.120Z,19.38
2022-11-15T12:37:49.250Z,19.39
2022-11-15T12:40:22.868Z,19.41
2022-11-15T12:43:01.698Z,19.40
2022-11-15T12:45:30.756Z,19.39
2022-11-15T12:48:13.844Z,19.37
2022-11-15T12:50:59.033Z,19.36
2022-11-15T12:53:30.472Z,19.35
2022-11-15T12:56:11.583Z,19.32
2022-11-15T12:58:43.879Z,19.32
2022-11-15T13:01:11.685Z,19.31
2022-11-15T13:04:12.601Z,19.30
2022-11-15T13:06:42.753Z,19.30
2022-11-15T13:10:02.086Z,19.29
2022-11-15T13:12:52.480Z,19.28
2022-11-15T13:15:54.737Z,19.27
2022-11-15T13:18:36.981Z,19.27
2022-11-15T13:21:28.101Z,19.25
2022-11-15T13:23:57.444Z,19.24
2022-11-15T13:26:25.023Z,19.25
2022-11-15T13:28:55.699Z,19.24
2022-11-15T13:31:28.151Z,19.23
2022-11-15T13:33:58.203Z,19.22
2022-11-15T13:36:26.550Z,19.21
2022-11-15T13:39:00.208Z,19.21
2022-11-15T13:41:29.451Z,19.20
2022-11-15T13:43:57.614Z,19.18
2022-11-15T13:46:25.864Z,19.18
2022-11-15T13:48:56.006Z,19.20
2022-11-15T13:51:26.779Z,19.21
2022-11-15T13:53:56.521Z,19.21
2022-11-15T13:56:26.957Z,19.18
2022-11-15T13:58:55.779Z,19.17
2022-11-15T14:01:23.539Z,19.18
2022-11-15T14:03:53.938Z,19.18
2022-11-15T14:06:22.230Z,19.18
2022-11-15T14:09:17.946Z,19.17
2022-11-15T14:11:53.865Z,19.17
2022-11-15T14:14:22.411Z,19.17
2022-11-15T14:16:51.187Z,19.17
2022-11-15T14:19:39.888Z,19.17
2022-11-15T14:22:15.760Z,19.17
2022-11-15T14:24:44.437Z,19.16
2022-11-15T14:27:25.400Z,19.15
2022-11-15T14:29:53.190Z,19.15
2022-11-15T14:32:21.970Z,19.14
2022-11-15T14:34:49.755Z,19.14
2022-11-15T14:37:22.896Z,19.15
2022-11-15T14:39:50.835Z,19.13
2022-11-15T14:42:18.581Z,19.13
2022-11-15T14:44:47.627Z,19.13
2022-11-15T14:47:15.232Z,19.14
2022-11-15T14:50:01.270Z,19.13
2022-11-15T14:52:49.380Z,19.11
2022-11-15T14:55:21.159Z,19.11
2022-11-15T14:57:48.721Z,19.11
2022-11-15T15:00:18.548Z,19.11
2022-11-15T15:02:46.976Z,19.10
2022-11-15T15:05:16.214Z,19.11
2022-11-15T15:07:44.173Z,19.10
2022-11-15T15:10:38.276Z,19.09
2022-11-15T15:12:59.506Z,19.08
2022-11-15T15:15:34.199Z,19.08
2022-11-15T15:18:01.856Z,19.08
2022-11-15T15:20:29.719Z,19.08
2022-11-15T15:22:57.332Z,19.07
2022-11-15T15:25:27.753Z,19.07
2022-11-15T15:27:55.517Z,19.06
2022-11-15T15:30:23.350Z,19.07
2022-11-15T15:32:52.281Z,19.06
2022-11-15T15:35:20.237Z,19.05
2022-11-15T15:37:48.385Z,19.04
2022-11-15T15:40:17.726Z,19.04
2022-11-15T15:42:45.415Z,19.04
2022-11-15T15:45:13.076Z,19.02
2022-11-15T15:47:40.631Z,19.02
2022-11-15T15:50:20.100Z,19.01
2022-11-15T15:52:47.657Z,19.02
2022-11-15T15:55:15.420Z,19.01
2022-11-15T15:57:42.956Z,19.02
2022-11-15T16:00:11.889Z,19.01
2022-11-15T16:02:40.771Z,19.02
2022-11-15T16:05:08.816Z,19.01
2022-11-15T16:07:37.799Z,19.01
2022-11-15T16:10:15.239Z,19.01
2022-11-15T16:12:42.844Z,19.00
2022-11-15T16:15:11.000Z,19.02
2022-11-15T16:17:40.140Z,19.01
2022-11-15T16:20:08.048Z,19.00
2022-11-15T16:22:37.046Z,19.01
2022-11-15T16:25:04.992Z,19.02
2022-11-15T16:27:32.586Z,19.01
2022-11-15T16:30:00.262Z,19.00
2022-11-15T16:32:28.070Z,19.00
2022-11-15T16:34:56.972Z,18.99
2022-11-15T16:37:24.988Z,19.01
2022-11-15T16:39:58.407Z,19.00
2022-11-15T16:42:28.436Z,19.00
2022-11-15T16:44:56.026Z,19.01
2022-11-15T16:47:23.821Z,19.00
2022-11-15T16:49:51.450Z,19.01
2022-11-15T16:52:21.506Z,19.01
2022-11-15T16:54:49.287Z,19.01
2022-11-15T16:57:18.344Z,19.00
2022-11-15T16:59:45.959Z,19.01
2022-11-15T17:02:13.621Z,19.01
2022-11-15T17:04:41.519Z,19.00
2022-11-15T17:07:09.344Z,19.00
2022-11-15T17:09:36.965Z,19.00
2022-11-15T17:12:04.793Z,18.99
2022-11-15T17:14:33.711Z,18.99
2022-11-15T17:17:01.592Z,18.98
2022-11-15T17:19:29.165Z,18.98
2022-11-15T17:21:56.759Z,18.98
2022-11-15T17:24:24.346Z,18.97
2022-11-15T17:26:51.907Z,18.97
2022-11-15T17:29:19.556Z,18.98
2022-11-15T17:31:48.490Z,18.98
2022-11-15T17:34:16.105Z,18.99
2022-11-15T17:36:43.688Z,18.99
2022-11-15T17:39:11.610Z,18.99
2022-11-15T17:41:39.219Z,18.98
2022-11-15T17:44:06.920Z,18.99
2022-11-15T17:46:36.287Z,18.98
2022-11-15T17:49:05.299Z,18.98
2022-11-15T17:51:33.021Z,18.98
2022-11-15T17:54:00.606Z,18.98
2022-11-15T17:56:29.596Z,18.98
2022-11-15T17:58:58.207Z,18.98
2022-11-15T18:01:27.282Z,19.02
2022-11-15T18:03:55.547Z,19.10
2022-11-15T18:06:25.158Z,19.18
2022-11-15T18:08:53.519Z,19.27
2022-11-15T18:11:22.259Z,19.36
2022-11-15T18:13:52.562Z,19.43
2022-11-15T18:16:21.457Z,19.50
2022-11-15T18:18:49.043Z,19.60
2022-11-15T18:21:18.473Z,19.66
2022-11-15T18:23:47.478Z,19.71
2022-11-15T18:26:15.826Z,19.76
2022-11-15T18:28:44.536Z,19.82
2022-11-15T18:31:16.591Z,19.88
2022-11-15T18:33:44.220Z,19.92
2022-11-15T18:36:13.086Z,19.96
2022-11-15T18:38:40.810Z,19.99
2022-11-15T18:41:10.320Z,20.01
2022-11-15T18:43:38.053Z,20.06
2022-11-15T18:46:06.164Z,20.08
2022-11-15T18:48:36.790Z,20.12
2022-11-15T18:51:05.488Z,20.14
2022-11-15T18:53:33.407Z,20.17
2022-11-15T18:56:02.001Z,20.19
2022-11-15T18:58:32.344Z,20.19
2022-11-15T19:01:03.644Z,20.21
2022-11-15T19:03:34.799Z,20.23
2022-11-15T19:06:03.608Z,20.25
2022-11-15T19:08:35.180Z,20.27
2022-11-15T19:11:06.206Z,20.29
2022-11-15T19:13:35.480Z,20.33
2022-11-15T19:16:03.741Z,20.33
2022-11-15T19:18:31.672Z,20.33
2022-11-15T19:21:03.107Z,20.35
2022-11-15T19:23:30.921Z,20.37
2022-11-15T19:25:59.328Z,20.38
2022-11-15T19:28:27.109Z,20.37
2022-11-15T19:30:56.014Z,20.37
2022-11-15T19:33:27.689Z,20.38
2022-11-15T19:36:01.125Z,20.40
2022-11-15T19:38:28.788Z,20.40
2022-11-15T19:40:59.275Z,20.40
2022-11-15T19:43:26.966Z,20.43
2022-11-15T19:46:01.964Z,20.44
2022-11-15T19:48:30.527Z,20.46
2022-11-15T19:51:01.037Z,20.47
2022-11-15T19:53:34.417Z,20.47
2022-11-15T19:56:04.020Z,20.46
2022-11-15T19:58:31.658Z,20.48
2022-11-15T20:01:04.741Z,20.49
2022-11-15T20:03:33.265Z,20.50
2022-11-15T20:06:04.253Z,20.50
2022-11-15T20:08:32.489Z,20.52
2022-11-15T20:11:00.658Z,20.53
2022-11-15T20:13:28.262Z,20.55
2022-11-15T20:15:56.538Z,20.57
2022-11-15T20:18:25.819Z,20.60
2022-11-15T20:20:54.628Z,20.61
2022-11-15T20:23:22.201Z,20.60
2022-11-15T20:25:49.805Z,20.60
2022-11-15T20:28:18.424Z,20.59
2022-11-15T20:30:46.121Z,20.58
2022-11-15T20:33:13.822Z,20.65
2022-11-15T20:35:43.856Z,20.64
2022-11-15T20:38:11.550Z,20.63
2022-11-15T20:40:39.495Z,20.59
2022-11-15T20:43:07.116Z,20.54
2022-11-15T20:45:34.708Z,20.49
2022-11-15T20:48:02.309Z,20.41
2022-11-15T20:50:42.720Z,20.36
2022-11-15T20:53:12.757Z,20.28
2022-11-15T20:55:41.207Z,20.24
2022-11-15T20:58:09.141Z,20.17
2022-11-15T21:00:37.019Z,20.13
2022-11-15T21:03:06.615Z,20.10
2022-11-15T21:05:35.175Z,20.07
2022-11-15T21:08:02.766Z,20.02
2022-11-15T21:10:49.479Z,19.96
2022-11-15T21:13:17.159Z,19.93
2022-11-15T21:15:44.729Z,19.90
2022-11-15T21:18:12.689Z,19.88
2022-11-15T21:20:40.235Z,19.83
2022-11-15T21:23:07.953Z,19.81
2022-11-15T21:25:36.868Z,19.78
2022-11-15T21:28:04.622Z,19.76
2022-11-15T21:30:32.305Z,19.72
2022-11-15T21:32:59.897Z,19.67
2022-11-15T21:35:27.573Z,19.65
2022-11-15T21:37:57.194Z,19.62
2022-11-15T21:40:24.907Z,19.62
2022-11-15T21:42:53.804Z,19.59
2022-11-15T21:45:21.374Z,19.57
2022-11-15T21:47:48.963Z,19.56
2022-11-15T21:50:16.804Z,19.55
2022-11-15T21:52:44.390Z,19.52
2022-11-15T21:55:11.958Z,19.51
2022-11-15T21:57:39.611Z,19.48
2022-11-15T22:00:27.233Z,19.46
2022-11-15T22:02:54.851Z,19.45
2022-11-15T22:05:22.407Z,19.44
2022-11-15T22:07:49.968Z,19.42
2022-11-15T22:10:18.096Z,19.39
2022-11-15T22:12:45.665Z,19.37
2022-11-15T22:15:15.060Z,19.37
2022-11-15T22:18:00.880Z,19.36
2022-11-15T22:20:43.956Z,19.35
2022-11-15T22:23:12.055Z,19.33
2022-11-15T22:25:39.828Z,19.31
2022-11-15T22:28:07.491Z,19.30
2022-11-15T22:30:36.539Z,19.29
2022-11-15T22:33:04.267Z,19.28
2022-11-15T22:35:31.950Z,19.27
2022-11-15T22:37:59.628Z,19.27
2022-11-15T22:40:27.279Z,19.26
2022-11-15T22:42:55.035Z,19.25
2022-11-15T22:45:22.731Z,19.24
2022-11-15T22:47:51.735Z,19.24
2022-11-15T22:50:19.528Z,19.24
2022-11-15T22:52:47.268Z,19.22
2022-11-15T22:55:14.928Z,19.20
2022-11-15T22:57:42.605Z,19.21
2022-11-15T23:00:12.987Z,19.19
2022-11-15T23:02:40.701Z,19.19
2022-11-15T23:05:09.932Z,19.18
2022-11-15T23:07:37.687Z,19.17
2022-11-15T23:10:19.627Z,19.16
2022-11-15T23:13:04.553Z,19.14
2022-11-15T23:15:52.207Z,19.13
2022-11-15T23:18:19.981Z,19.13
2022-11-15T23:20:48.994Z,19.12
2022-11-15T23:23:15.656Z,19.11
2022-11-15T23:25:43.335Z,19.09
2022-11-15T23:28:10.983Z,19.08
2022-11-15T23:30:56.564Z,19.09
2022-11-15T23:33:42.012Z,19.08
2022-11-15T23:36:11.087Z,19.07
2022-11-15T23:38:38.752Z,19.07
2022-11-15T23:41:06.900Z,19.06
2022-11-15T23:43:34.725Z,19.05
2022-11-15T23:46:02.534Z,19.05
2022-11-15T23:48:30.387Z,19.04
2022-11-15T23:50:58.256Z,19.02
2022-11-15T23:53:27.363Z,19.02
2022-11-15T23:55:56.120Z,19.02
2022-11-15T23:58:23.784Z,19.01
